DLH5KD LFKB-EDDM
Flight info
| Callsign | DLH5KD |
|---|---|
| Flight time | 1h 7m |
| Altitude | 38000 |
| Route | MOULE L146 ELB DCT BETMU DCT BORMI DCT NAXAV DCT BEXOR DCT SOTOV T101 BETOS BETOS1A |
| Aircraft | A320/M-SDE2E3FGIJ1LORWXYZ/HB1 |
Departure
| Time | 2026-04-17 11:21 |
|---|---|
| Airport | Bastia-Poretta International airport (LFKB) |
Arrival
| Time | 2026-04-17 12:28 |
|---|---|
| Airport | Munich Airport (EDDM) |
| Time | Latitude | Longitude | Altitude | Speed | Heading |
|---|---|---|---|---|---|
| 2026-04-17 10:59 | 42.54780 | 9.48187 | 35 ft | 0 kts | 253° |
| 2026-04-17 11:14 | 42.54781 | 9.48191 | 35 ft | 2 kts | 253° |
| 2026-04-17 11:15 | 42.54786 | 9.48214 | 35 ft | 3 kts | 253° |
| 2026-04-17 11:15 | 42.54792 | 9.48240 | 33 ft | 3 kts | 252° |
| 2026-04-17 11:15 | 42.54799 | 9.48265 | 33 ft | 3 kts | 233° |
| 2026-04-17 11:15 | 42.54812 | 9.48281 | 33 ft | 3 kts | 189° |
| 2026-04-17 11:16 | 42.54824 | 9.48281 | 35 ft | 1 kts | 163° |
| 2026-04-17 11:16 | 42.54837 | 9.48276 | 35 ft | 1 kts | 163° |
| 2026-04-17 11:16 | 42.54839 | 9.48275 | 34 ft | 0 kts | 163° |
| 2026-04-17 11:18 | 42.54824 | 9.48281 | 35 ft | 8 kts | 163° |
| 2026-04-17 11:18 | 42.54732 | 9.48319 | 35 ft | 19 kts | 163° |
| 2026-04-17 11:18 | 42.54613 | 9.48370 | 35 ft | 17 kts | 162° |
| 2026-04-17 11:19 | 42.54504 | 9.48415 | 35 ft | 16 kts | 163° |
| 2026-04-17 11:19 | 42.54401 | 9.48417 | 35 ft | 14 kts | 171° |
| 2026-04-17 11:19 | 42.54310 | 9.48453 | 34 ft | 13 kts | 162° |
| 2026-04-17 11:19 | 42.54211 | 9.48495 | 35 ft | 16 kts | 162° |
| 2026-04-17 11:20 | 42.54134 | 9.48586 | 35 ft | 15 kts | 115° |
| 2026-04-17 11:20 | 42.54144 | 9.48727 | 35 ft | 16 kts | 59° |
| 2026-04-17 11:20 | 42.54243 | 9.48799 | 35 ft | 18 kts | 354° |
| 2026-04-17 11:20 | 42.54381 | 9.48744 | 32 ft | 28 kts | 343° |
| 2026-04-17 11:21 | 42.54813 | 9.48563 | 34 ft | 100 kts | 343° |
| 2026-04-17 11:21 | 42.55656 | 9.48211 | 37 ft | 155 kts | 345° |
| 2026-04-17 11:21 | 42.56726 | 9.47788 | 679 ft | 158 kts | 353° |
| 2026-04-17 11:21 | 42.57785 | 9.48015 | 1419 ft | 161 kts | 28° |
| 2026-04-17 11:22 | 42.58581 | 9.49191 | 1834 ft | 186 kts | 67° |
| 2026-04-17 11:22 | 42.58601 | 9.51054 | 2217 ft | 217 kts | 102° |
| 2026-04-17 11:22 | 42.58308 | 9.53167 | 2758 ft | 239 kts | 85° |
| 2026-04-17 11:22 | 42.58577 | 9.55480 | 3379 ft | 255 kts | 75° |
| 2026-04-17 11:23 | 42.59026 | 9.57842 | 4315 ft | 261 kts | 72° |
| 2026-04-17 11:23 | 42.59522 | 9.60223 | 5333 ft | 264 kts | 72° |
| 2026-04-17 11:23 | 42.60011 | 9.62645 | 6292 ft | 269 kts | 73° |
| 2026-04-17 11:23 | 42.60483 | 9.65132 | 7185 ft | 275 kts | 74° |
| 2026-04-17 11:24 | 42.60791 | 9.66846 | 7786 ft | 278 kts | 75° |
| 2026-04-17 11:24 | 42.61235 | 9.69425 | 8710 ft | 283 kts | 75° |
| 2026-04-17 11:24 | 42.61671 | 9.72049 | 9608 ft | 287 kts | 76° |
| 2026-04-17 11:24 | 42.62101 | 9.74690 | 10406 ft | 296 kts | 76° |
| 2026-04-17 11:25 | 42.62571 | 9.77522 | 10741 ft | 319 kts | 76° |
| 2026-04-17 11:25 | 42.63085 | 9.80529 | 11309 ft | 332 kts | 75° |
| 2026-04-17 11:25 | 42.63616 | 9.83608 | 12115 ft | 337 kts | 75° |
| 2026-04-17 11:25 | 42.64152 | 9.86720 | 12935 ft | 341 kts | 75° |
| 2026-04-17 11:26 | 42.64694 | 9.89871 | 13745 ft | 345 kts | 75° |
| 2026-04-17 11:26 | 42.65242 | 9.93060 | 14460 ft | 349 kts | 75° |
| 2026-04-17 11:26 | 42.65793 | 9.96284 | 15148 ft | 352 kts | 75° |
| 2026-04-17 11:26 | 42.66351 | 9.99546 | 15819 ft | 356 kts | 75° |
| 2026-04-17 11:27 | 42.66912 | 10.02846 | 16515 ft | 360 kts | 75° |
| 2026-04-17 11:27 | 42.67476 | 10.06182 | 17192 ft | 365 kts | 75° |
| 2026-04-17 11:27 | 42.68046 | 10.09559 | 17864 ft | 369 kts | 75° |
| 2026-04-17 11:27 | 42.68622 | 10.12975 | 18514 ft | 373 kts | 75° |
| 2026-04-17 11:28 | 42.69203 | 10.16426 | 19101 ft | 376 kts | 75° |
| 2026-04-17 11:28 | 42.69789 | 10.19905 | 19703 ft | 379 kts | 75° |
| 2026-04-17 11:28 | 42.70375 | 10.23407 | 20317 ft | 381 kts | 75° |
| 2026-04-17 11:28 | 42.70966 | 10.26935 | 20924 ft | 384 kts | 75° |
| 2026-04-17 11:29 | 42.71578 | 10.30481 | 21496 ft | 386 kts | 72° |
| 2026-04-17 11:29 | 42.72605 | 10.33843 | 22047 ft | 386 kts | 58° |
| 2026-04-17 11:29 | 42.74206 | 10.36752 | 22594 ft | 385 kts | 44° |
| 2026-04-17 11:29 | 42.76285 | 10.39046 | 23144 ft | 386 kts | 30° |
| 2026-04-17 11:30 | 42.78718 | 10.40589 | 23682 ft | 387 kts | 16° |
| 2026-04-17 11:30 | 42.81358 | 10.41337 | 24132 ft | 389 kts | 8° |
| 2026-04-17 11:30 | 42.84042 | 10.41897 | 24602 ft | 391 kts | 8° |
| 2026-04-17 11:30 | 42.86772 | 10.42470 | 25068 ft | 393 kts | 8° |
| 2026-04-17 11:31 | 42.89483 | 10.43046 | 25523 ft | 395 kts | 8° |
| 2026-04-17 11:31 | 42.92207 | 10.43630 | 25967 ft | 397 kts | 8° |
| 2026-04-17 11:31 | 42.94906 | 10.44213 | 26395 ft | 399 kts | 8° |
| 2026-04-17 11:31 | 42.97660 | 10.44807 | 26827 ft | 402 kts | 8° |
| 2026-04-17 11:32 | 43.00463 | 10.45411 | 27262 ft | 404 kts | 8° |
| 2026-04-17 11:32 | 43.03209 | 10.46005 | 27677 ft | 406 kts | 8° |
| 2026-04-17 11:32 | 43.06042 | 10.46617 | 28101 ft | 408 kts | 8° |
| 2026-04-17 11:32 | 43.08854 | 10.47222 | 28514 ft | 410 kts | 7° |
| 2026-04-17 11:33 | 43.11678 | 10.47827 | 28918 ft | 412 kts | 7° |
| 2026-04-17 11:33 | 43.14480 | 10.48427 | 29309 ft | 414 kts | 7° |
| 2026-04-17 11:33 | 43.17378 | 10.49049 | 29702 ft | 417 kts | 7° |
| 2026-04-17 11:33 | 43.20215 | 10.49659 | 30066 ft | 420 kts | 7° |
| 2026-04-17 11:34 | 43.23109 | 10.50285 | 30397 ft | 422 kts | 7° |
| 2026-04-17 11:34 | 43.26018 | 10.50913 | 30705 ft | 424 kts | 7° |
| 2026-04-17 11:34 | 43.28977 | 10.51554 | 31015 ft | 426 kts | 7° |
| 2026-04-17 11:34 | 43.31911 | 10.52192 | 31321 ft | 428 kts | 7° |
| 2026-04-17 11:35 | 43.34853 | 10.52833 | 31632 ft | 429 kts | 7° |
| 2026-04-17 11:35 | 43.37808 | 10.53476 | 31966 ft | 430 kts | 7° |
| 2026-04-17 11:35 | 43.40759 | 10.54117 | 32405 ft | 428 kts | 7° |
| 2026-04-17 11:35 | 43.43699 | 10.54754 | 32835 ft | 427 kts | 7° |
| 2026-04-17 11:36 | 43.46627 | 10.55392 | 33288 ft | 425 kts | 7° |
| 2026-04-17 11:36 | 43.49543 | 10.56028 | 33726 ft | 424 kts | 7° |
| 2026-04-17 11:36 | 43.52452 | 10.56662 | 34156 ft | 422 kts | 7° |
| 2026-04-17 11:36 | 43.55312 | 10.57282 | 34532 ft | 421 kts | 7° |
| 2026-04-17 11:37 | 43.58206 | 10.57908 | 34891 ft | 420 kts | 7° |
| 2026-04-17 11:37 | 43.61093 | 10.58534 | 35222 ft | 420 kts | 7° |
| 2026-04-17 11:37 | 43.63975 | 10.59165 | 35533 ft | 419 kts | 7° |
| 2026-04-17 11:37 | 43.66850 | 10.59802 | 35832 ft | 419 kts | 7° |
| 2026-04-17 11:38 | 43.69727 | 10.60442 | 36123 ft | 418 kts | 7° |
| 2026-04-17 11:38 | 43.72602 | 10.61077 | 36410 ft | 418 kts | 7° |
| 2026-04-17 11:38 | 43.75475 | 10.61708 | 36696 ft | 418 kts | 7° |
| 2026-04-17 11:38 | 43.78346 | 10.62336 | 36971 ft | 418 kts | 7° |
| 2026-04-17 11:39 | 43.81212 | 10.62965 | 37247 ft | 417 kts | 7° |
| 2026-04-17 11:39 | 43.84080 | 10.63596 | 37513 ft | 417 kts | 7° |
| 2026-04-17 11:39 | 43.86946 | 10.64230 | 37782 ft | 417 kts | 7° |
| 2026-04-17 11:39 | 43.89807 | 10.64863 | 38055 ft | 417 kts | 7° |
| 2026-04-17 11:40 | 43.92674 | 10.65495 | 38162 ft | 417 kts | 7° |
| 2026-04-17 11:40 | 43.95533 | 10.66128 | 38164 ft | 416 kts | 7° |
| 2026-04-17 11:40 | 44.01240 | 10.67394 | 38193 ft | 415 kts | 7° |
| 2026-04-17 11:41 | 44.06937 | 10.68660 | 38214 ft | 415 kts | 7° |
| 2026-04-17 11:41 | 44.12640 | 10.69926 | 38234 ft | 415 kts | 7° |
| 2026-04-17 11:42 | 44.18341 | 10.71191 | 38235 ft | 415 kts | 7° |
| 2026-04-17 11:42 | 44.24044 | 10.72466 | 38248 ft | 415 kts | 7° |
| 2026-04-17 11:43 | 44.29744 | 10.73752 | 38255 ft | 415 kts | 7° |
| 2026-04-17 11:43 | 44.35446 | 10.75031 | 38252 ft | 415 kts | 7° |
| 2026-04-17 11:44 | 44.41145 | 10.76305 | 38255 ft | 415 kts | 7° |
| 2026-04-17 11:44 | 44.46848 | 10.77589 | 38254 ft | 415 kts | 7° |
| 2026-04-17 11:45 | 44.52551 | 10.78879 | 38265 ft | 415 kts | 7° |
| 2026-04-17 11:45 | 44.58257 | 10.80172 | 38263 ft | 415 kts | 7° |
| 2026-04-17 11:46 | 44.63969 | 10.81466 | 38270 ft | 416 kts | 7° |
| 2026-04-17 11:46 | 44.69677 | 10.82781 | 38274 ft | 416 kts | 7° |
| 2026-04-17 11:47 | 44.75384 | 10.84180 | 38272 ft | 416 kts | 8° |
| 2026-04-17 11:47 | 44.81084 | 10.85616 | 38265 ft | 416 kts | 8° |
| 2026-04-17 11:48 | 44.86788 | 10.87045 | 38275 ft | 416 kts | 8° |
| 2026-04-17 11:48 | 44.92486 | 10.88470 | 38278 ft | 416 kts | 7° |
| 2026-04-17 11:49 | 44.98184 | 10.89890 | 38275 ft | 416 kts | 7° |
| 2026-04-17 11:49 | 45.03878 | 10.91308 | 38198 ft | 415 kts | 7° |
| 2026-04-17 11:50 | 45.09565 | 10.92724 | 38185 ft | 415 kts | 7° |
| 2026-04-17 11:50 | 45.15254 | 10.94139 | 38179 ft | 415 kts | 7° |
| 2026-04-17 11:51 | 45.20943 | 10.95563 | 38175 ft | 415 kts | 7° |
| 2026-04-17 11:51 | 45.26634 | 10.97001 | 38194 ft | 415 kts | 7° |
| 2026-04-17 11:52 | 45.32330 | 10.98438 | 38184 ft | 416 kts | 7° |
| 2026-04-17 11:52 | 45.38027 | 10.99875 | 38180 ft | 416 kts | 7° |
| 2026-04-17 11:53 | 45.43728 | 11.01321 | 38184 ft | 416 kts | 7° |
| 2026-04-17 11:53 | 45.49430 | 11.02766 | 38201 ft | 416 kts | 7° |
| 2026-04-17 11:54 | 45.55132 | 11.04210 | 38215 ft | 416 kts | 7° |
| 2026-04-17 11:54 | 45.60834 | 11.05665 | 38235 ft | 416 kts | 8° |
| 2026-04-17 11:55 | 45.66540 | 11.07131 | 38256 ft | 417 kts | 8° |
| 2026-04-17 11:55 | 45.72245 | 11.08586 | 38278 ft | 417 kts | 7° |
| 2026-04-17 11:56 | 45.77954 | 11.10037 | 38274 ft | 417 kts | 7° |
| 2026-04-17 11:56 | 45.83650 | 11.11493 | 38270 ft | 416 kts | 7° |
| 2026-04-17 11:57 | 45.89349 | 11.12965 | 38266 ft | 416 kts | 8° |
| 2026-04-17 11:57 | 45.95048 | 11.14448 | 38261 ft | 416 kts | 8° |
| 2026-04-17 11:58 | 46.00741 | 11.15924 | 38265 ft | 416 kts | 7° |
| 2026-04-17 11:58 | 46.06423 | 11.17500 | 38276 ft | 416 kts | 10° |
| 2026-04-17 11:59 | 46.12047 | 11.19539 | 38274 ft | 417 kts | 12° |
| 2026-04-17 11:59 | 46.17650 | 11.21700 | 38279 ft | 417 kts | 12° |
| 2026-04-17 12:00 | 46.23262 | 11.23793 | 38281 ft | 417 kts | 11° |
| 2026-04-17 12:00 | 46.28870 | 11.25832 | 38232 ft | 416 kts | 11° |
| 2026-04-17 12:01 | 46.34531 | 11.27879 | 38230 ft | 416 kts | 11° |
| 2026-04-17 12:01 | 46.40194 | 11.29941 | 37961 ft | 418 kts | 11° |
| 2026-04-17 12:02 | 46.42978 | 11.30950 | 37572 ft | 417 kts | 9° |
| 2026-04-17 12:02 | 46.45788 | 11.31584 | 37303 ft | 413 kts | 1° |
| 2026-04-17 12:02 | 46.48652 | 11.31601 | 37034 ft | 411 kts | 353° |
| 2026-04-17 12:02 | 46.51478 | 11.31047 | 36770 ft | 410 kts | 348° |
| 2026-04-17 12:03 | 46.54291 | 11.30385 | 36510 ft | 410 kts | 349° |
| 2026-04-17 12:03 | 46.57103 | 11.29734 | 36258 ft | 410 kts | 349° |
| 2026-04-17 12:03 | 46.59921 | 11.29082 | 36012 ft | 410 kts | 349° |
| 2026-04-17 12:03 | 46.62741 | 11.28425 | 35780 ft | 411 kts | 348° |
| 2026-04-17 12:04 | 46.65562 | 11.27764 | 35540 ft | 410 kts | 348° |
| 2026-04-17 12:04 | 46.68375 | 11.27109 | 35299 ft | 408 kts | 349° |
| 2026-04-17 12:04 | 46.71173 | 11.26462 | 35058 ft | 406 kts | 349° |
| 2026-04-17 12:04 | 46.73948 | 11.25817 | 34659 ft | 401 kts | 348° |
| 2026-04-17 12:05 | 46.76697 | 11.25175 | 34139 ft | 399 kts | 348° |
| 2026-04-17 12:05 | 46.79425 | 11.24534 | 33605 ft | 396 kts | 348° |
| 2026-04-17 12:05 | 46.81255 | 11.24105 | 33265 ft | 393 kts | 348° |
| 2026-04-17 12:05 | 46.83938 | 11.23476 | 32759 ft | 388 kts | 348° |
| 2026-04-17 12:06 | 46.86589 | 11.22855 | 32240 ft | 384 kts | 348° |
| 2026-04-17 12:06 | 46.89210 | 11.22244 | 31739 ft | 379 kts | 348° |
| 2026-04-17 12:06 | 46.91807 | 11.21642 | 31242 ft | 376 kts | 348° |
| 2026-04-17 12:06 | 46.94394 | 11.21152 | 30753 ft | 374 kts | 354° |
| 2026-04-17 12:07 | 46.96995 | 11.21212 | 30271 ft | 373 kts | 360° |
| 2026-04-17 12:07 | 46.99575 | 11.21395 | 29748 ft | 369 kts | 360° |
| 2026-04-17 12:07 | 47.02119 | 11.21572 | 29296 ft | 363 kts | 360° |
| 2026-04-17 12:07 | 47.04630 | 11.21745 | 28853 ft | 359 kts | 360° |
| 2026-04-17 12:08 | 47.07111 | 11.21913 | 28400 ft | 355 kts | 360° |
| 2026-04-17 12:08 | 47.09554 | 11.22078 | 27982 ft | 349 kts | 0° |
| 2026-04-17 12:08 | 47.11966 | 11.22241 | 27556 ft | 345 kts | 0° |
| 2026-04-17 12:08 | 47.14345 | 11.22398 | 27150 ft | 340 kts | 0° |
| 2026-04-17 12:09 | 47.16702 | 11.22553 | 26738 ft | 337 kts | 0° |
| 2026-04-17 12:09 | 47.19039 | 11.22707 | 26335 ft | 335 kts | 0° |
| 2026-04-17 12:09 | 47.21358 | 11.22861 | 25929 ft | 333 kts | 0° |
| 2026-04-17 12:09 | 47.23661 | 11.23016 | 25518 ft | 330 kts | 0° |
| 2026-04-17 12:10 | 47.25952 | 11.23171 | 25088 ft | 329 kts | 0° |
| 2026-04-17 12:10 | 47.28234 | 11.23323 | 24670 ft | 327 kts | 0° |
| 2026-04-17 12:10 | 47.30496 | 11.23472 | 24239 ft | 324 kts | 0° |
| 2026-04-17 12:10 | 47.32740 | 11.23623 | 23820 ft | 322 kts | 1° |
| 2026-04-17 12:11 | 47.34952 | 11.23773 | 23341 ft | 322 kts | 1° |
| 2026-04-17 12:11 | 47.37216 | 11.23927 | 22896 ft | 321 kts | 1° |
| 2026-04-17 12:11 | 47.39438 | 11.24077 | 22477 ft | 319 kts | 0° |
| 2026-04-17 12:12 | 47.43864 | 11.24383 | 21624 ft | 317 kts | 1° |
| 2026-04-17 12:12 | 47.46061 | 11.24532 | 21213 ft | 315 kts | 0° |
| 2026-04-17 12:12 | 47.48222 | 11.24678 | 20801 ft | 314 kts | 0° |
| 2026-04-17 12:12 | 47.50433 | 11.24828 | 20388 ft | 314 kts | 0° |
| 2026-04-17 12:13 | 47.52610 | 11.24980 | 19980 ft | 313 kts | 0° |
| 2026-04-17 12:13 | 47.54779 | 11.25131 | 19584 ft | 312 kts | 0° |
| 2026-04-17 12:13 | 47.56944 | 11.25206 | 19174 ft | 311 kts | 358° |
| 2026-04-17 12:13 | 47.59108 | 11.25205 | 18767 ft | 311 kts | 357° |
| 2026-04-17 12:14 | 47.61265 | 11.25172 | 18361 ft | 310 kts | 357° |
| 2026-04-17 12:14 | 47.63419 | 11.25133 | 17936 ft | 309 kts | 357° |
| 2026-04-17 12:14 | 47.65570 | 11.25100 | 17538 ft | 308 kts | 358° |
| 2026-04-17 12:14 | 47.67713 | 11.25075 | 17168 ft | 307 kts | 358° |
| 2026-04-17 12:15 | 47.69849 | 11.25058 | 16769 ft | 306 kts | 358° |
| 2026-04-17 12:15 | 47.71952 | 11.25050 | 16388 ft | 306 kts | 359° |
| 2026-04-17 12:15 | 47.74066 | 11.25424 | 16002 ft | 308 kts | 11° |
| 2026-04-17 12:15 | 47.76103 | 11.26430 | 15606 ft | 309 kts | 18° |
| 2026-04-17 12:16 | 47.78116 | 11.27554 | 15230 ft | 309 kts | 18° |
| 2026-04-17 12:16 | 47.80157 | 11.28693 | 14831 ft | 309 kts | 18° |
| 2026-04-17 12:16 | 47.82172 | 11.29815 | 14445 ft | 309 kts | 18° |
| 2026-04-17 12:16 | 47.84186 | 11.30936 | 14068 ft | 310 kts | 19° |
| 2026-04-17 12:17 | 47.86204 | 11.32057 | 13642 ft | 309 kts | 19° |
| 2026-04-17 12:17 | 47.88200 | 11.33104 | 13259 ft | 307 kts | 13° |
| 2026-04-17 12:17 | 47.90318 | 11.33589 | 12864 ft | 303 kts | 1° |
| 2026-04-17 12:17 | 47.92388 | 11.33751 | 12485 ft | 302 kts | 1° |
| 2026-04-17 12:18 | 47.94480 | 11.33894 | 12097 ft | 300 kts | 1° |
| 2026-04-17 12:18 | 47.96563 | 11.34034 | 11728 ft | 299 kts | 1° |
| 2026-04-17 12:18 | 47.98634 | 11.34174 | 11354 ft | 297 kts | 1° |
| 2026-04-17 12:18 | 48.00693 | 11.34299 | 10987 ft | 296 kts | 1° |
| 2026-04-17 12:19 | 48.02749 | 11.34411 | 10622 ft | 295 kts | 1° |
| 2026-04-17 12:19 | 48.04794 | 11.34515 | 10262 ft | 293 kts | 1° |
| 2026-04-17 12:19 | 48.06828 | 11.34610 | 9879 ft | 291 kts | 1° |
| 2026-04-17 12:19 | 48.08849 | 11.34692 | 9483 ft | 290 kts | 1° |
| 2026-04-17 12:20 | 48.10855 | 11.34756 | 9090 ft | 287 kts | 1° |
| 2026-04-17 12:20 | 48.12848 | 11.34796 | 8701 ft | 285 kts | 1° |
| 2026-04-17 12:20 | 48.14826 | 11.34821 | 8316 ft | 283 kts | 1° |
| 2026-04-17 12:20 | 48.16790 | 11.34836 | 7936 ft | 281 kts | 1° |
| 2026-04-17 12:21 | 48.18739 | 11.34842 | 7552 ft | 279 kts | 1° |
| 2026-04-17 12:21 | 48.20674 | 11.34822 | 7191 ft | 277 kts | 1° |
| 2026-04-17 12:21 | 48.22597 | 11.34789 | 6824 ft | 276 kts | 1° |
| 2026-04-17 12:21 | 48.24514 | 11.34768 | 6450 ft | 274 kts | 4° |
| 2026-04-17 12:22 | 48.26343 | 11.35342 | 6133 ft | 264 kts | 26° |
| 2026-04-17 12:22 | 48.27820 | 11.36852 | 5881 ft | 253 kts | 48° |
| 2026-04-17 12:22 | 48.28818 | 11.39083 | 5617 ft | 247 kts | 64° |
| 2026-04-17 12:22 | 48.29569 | 11.41253 | 5376 ft | 240 kts | 63° |
| 2026-04-17 12:23 | 48.30332 | 11.43448 | 5147 ft | 235 kts | 63° |
| 2026-04-17 12:23 | 48.31084 | 11.45604 | 4948 ft | 230 kts | 63° |
| 2026-04-17 12:23 | 48.31806 | 11.47719 | 4768 ft | 225 kts | 68° |
| 2026-04-17 12:23 | 48.32132 | 11.49967 | 4598 ft | 218 kts | 84° |
| 2026-04-17 12:24 | 48.32277 | 11.52193 | 4474 ft | 211 kts | 84° |
| 2026-04-17 12:24 | 48.32438 | 11.54379 | 4229 ft | 209 kts | 83° |
| 2026-04-17 12:24 | 48.32605 | 11.56508 | 3969 ft | 200 kts | 83° |
| 2026-04-17 12:24 | 48.32766 | 11.58539 | 3731 ft | 191 kts | 83° |
| 2026-04-17 12:25 | 48.32917 | 11.60457 | 3466 ft | 178 kts | 83° |
| 2026-04-17 12:25 | 48.33061 | 11.62274 | 3233 ft | 172 kts | 82° |
| 2026-04-17 12:25 | 48.33201 | 11.64050 | 3025 ft | 170 kts | 83° |
| 2026-04-17 12:25 | 48.33332 | 11.65714 | 2801 ft | 150 kts | 83° |
| 2026-04-17 12:26 | 48.33449 | 11.67200 | 2599 ft | 137 kts | 83° |
| 2026-04-17 12:26 | 48.33558 | 11.68597 | 2401 ft | 132 kts | 83° |
| 2026-04-17 12:26 | 48.33666 | 11.69975 | 2229 ft | 132 kts | 82° |
| 2026-04-17 12:26 | 48.33773 | 11.71350 | 2043 ft | 133 kts | 81° |
| 2026-04-17 12:27 | 48.33884 | 11.72734 | 1835 ft | 133 kts | 81° |
| 2026-04-17 12:27 | 48.33991 | 11.74125 | 1670 ft | 134 kts | 81° |
| 2026-04-17 12:27 | 48.34098 | 11.75501 | 1504 ft | 131 kts | 82° |
| 2026-04-17 12:27 | 48.34196 | 11.76754 | 1477 ft | 105 kts | 83° |
| 2026-04-17 12:28 | 48.34270 | 11.77705 | 1485 ft | 80 kts | 83° |
| 2026-04-17 12:28 | 48.34326 | 11.78438 | 1480 ft | 62 kts | 83° |
| 2026-04-17 12:28 | 48.34384 | 11.79016 | 1480 ft | 50 kts | 70° |
| 2026-04-17 12:28 | 48.34551 | 11.79394 | 1482 ft | 23 kts | 53° |
| 2026-04-17 12:29 | 48.34640 | 11.79573 | 1476 ft | 22 kts | 53° |
| 2026-04-17 12:29 | 48.34754 | 11.79710 | 1485 ft | 22 kts | 358° |
| 2026-04-17 12:29 | 48.34914 | 11.79684 | 1486 ft | 24 kts | 353° |
| 2026-04-17 12:29 | 48.35062 | 11.79661 | 1478 ft | 16 kts | 4° |
| 2026-04-17 12:30 | 48.35108 | 11.79798 | 1485 ft | 17 kts | 83° |
| 2026-04-17 12:30 | 48.35123 | 11.79987 | 1482 ft | 19 kts | 83° |
| 2026-04-17 12:30 | 48.35155 | 11.80184 | 1478 ft | 17 kts | 31° |
| 2026-04-17 12:30 | 48.35283 | 11.80173 | 1485 ft | 20 kts | 353° |
| 2026-04-17 12:31 | 48.35425 | 11.80139 | 1485 ft | 21 kts | 353° |
| 2026-04-17 12:31 | 48.35579 | 11.80111 | 1485 ft | 23 kts | 353° |
| 2026-04-17 12:31 | 48.35706 | 11.80080 | 1482 ft | 15 kts | 348° |
| 2026-04-17 12:31 | 48.35749 | 11.80052 | 1485 ft | 4 kts | 301° |
| 2026-04-17 12:32 | 48.35749 | 11.79996 | 1483 ft | 6 kts | 262° |
| 2026-04-17 12:32 | 48.35745 | 11.79943 | 1478 ft | 5 kts | 263° |
| 2026-04-17 12:32 | 48.35743 | 11.79921 | 1481 ft | 0 kts | 263° |